Time,TemperatureF,DewpointF,PressureIn,WindDirection,WindDirectionDegrees,WindSpeedMPH,WindSpeedGustMPH,Humidity,HourlyPrecipIn,Conditions,Clouds,dailyrainin,SoftwareType,DateUTC
2013-05-09 00:02:00,71.0,-99.9,30.09,SW,225,8.0,12.0,-999,-99.99,,,-99.99,,2013-05-09 05:02:00,
2013-05-09 00:12:00,71.0,-99.9,30.09,SW,232,6.0,9.0,-999,-99.99,,,-99.99,,2013-05-09 05:12:00,
2013-05-09 00:22:00,71.0,-99.9,30.09,North,-999,-999.0,-999.0,-999,-99.99,,,-99.99,,2013-05-09 05:22:00,
2013-05-09 00:32:00,71.0,-99.9,30.09,SW,218,6.0,8.0,-999,-99.99,,,-99.99,,2013-05-09 05:32:00,
2013-05-09 00:43:00,71.0,-99.9,30.08,SW,230,7.0,9.0,-999,-99.99,,,-99.99,,2013-05-09 05:43:00,
2013-05-09 00:52:00,71.0,-99.9,30.08,North,-999,-999.0,-999.0,-999,-99.99,,,-99.99,,2013-05-09 05:52:00,
2013-05-09 01:02:00,71.0,-99.9,30.08,SW,233,7.0,10.0,-999,-99.99,,,-99.99,,2013-05-09 06:02:00,
2013-05-09 01:12:00,71.0,-99.9,30.08,SW,229,6.0,11.0,-999,-99.99,,,-99.99,,2013-05-09 06:12:00,
2013-05-09 01:22:00,71.0,-99.9,30.07,North,-999,-999.0,-999.0,-999,-99.99,,,-99.99,,2013-05-09 06:22:00,
2013-05-09 01:32:00,71.0,-99.9,30.07,SW,220,5.0,9.0,-999,-99.99,,,-99.99,,2013-05-09 06:32:00,
2013-05-09 01:42:00,70.0,-99.9,30.06,SW,219,5.0,7.0,-999,-99.99,,,-99.99,,2013-05-09 06:42:00,
2013-05-09 01:52:00,70.0,-99.9,30.06,North,-999,-999.0,-999.0,-999,-99.99,,,-99.99,,2013-05-09 06:52:00,
2013-05-09 02:01:00,70.0,-99.9,30.06,SW,220,7.0,9.0,-999,-99.99,,,-99.99,,2013-05-09 07:01:00,
2013-05-09 02:12:00,70.0,-99.9,30.06,SW,223,4.0,7.0,-999,-99.99,,,-99.99,,2013-05-09 07:12:00,
2013-05-09 02:22:00,70.0,-99.9,30.05,North,-999,-999.0,-999.0,-999,-99.99,,,-99.99,,2013-05-09 07:22:00,
2013-05-09 02:32:00,70.0,-99.9,30.05,SSW,213,5.0,7.0,-999,-99.99,,,-99.99,,2013-05-09 07:32:00,
2013-05-09 02:43:00,70.0,-99.9,30.05,SW,220,5.0,7.0,-999,-99.99,,,-99.99,,2013-05-09 07:43:00,
2013-05-09 02:52:00,70.0,-99.9,30.05,North,-999,-999.0,-999.0,-999,-99.99,,,-99.99,,2013-05-09 07:52:00,
2013-05-09 03:02:00,70.0,-99.9,30.05,SW,215,5.0,7.0,-999,-99.99,,,-99.99,,2013-05-09 08:02:00,
2013-05-09 03:11:00,69.0,-99.9,30.05,South,183,4.0,4.0,-999,-99.99,,,-99.99,,2013-05-09 08:11:00,
2013-05-09 03:22:00,69.0,-99.9,30.04,North,-999,-999.0,-999.0,-999,-99.99,,,-99.99,,2013-05-09 08:22:00,
2013-05-09 03:32:00,69.0,-99.9,30.04,SSW,199,3.0,5.0,-999,-99.99,,,-99.99,,2013-05-09 08:32:00,
2013-05-09 03:42:00,69.0,-99.9,30.04,SSW,204,3.0,4.0,-999,-99.99,,,-99.99,,2013-05-09 08:42:00,
2013-05-09 03:52:00,69.0,-99.9,30.05,North,-999,-999.0,-999.0,-999,-99.99,,,-99.99,,2013-05-09 08:52:00,
2013-05-09 04:02:00,69.0,-99.9,30.05,SSW,212,4.0,6.0,-999,-99.99,,,-99.99,,2013-05-09 09:02:00,
2013-05-09 04:12:00,69.0,-99.9,30.04,SW,214,4.0,6.0,-999,-99.99,,,-99.99,,2013-05-09 09:12:00,
2013-05-09 04:22:00,69.0,-99.9,30.04,North,-999,-999.0,-999.0,-999,-99.99,,,-99.99,,2013-05-09 09:22:00,
2013-05-09 04:32:00,69.0,-99.9,30.05,SW,217,3.0,5.0,-999,-99.99,,,-99.99,,2013-05-09 09:32:00,
2013-05-09 04:43:00,69.0,-99.9,30.05,SSW,213,4.0,6.0,-999,-99.99,,,-99.99,,2013-05-09 09:43:00,
2013-05-09 04:53:00,70.0,-99.9,30.05,North,-999,-999.0,-999.0,-999,-99.99,,,-99.99,,2013-05-09 09:53:00,
2013-05-09 05:02:00,69.0,-99.9,30.05,SSW,197,4.0,5.0,-999,-99.99,,,-99.99,,2013-05-09 10:02:00,
2013-05-09 05:12:00,69.0,-99.9,30.05,SSW,192,2.0,3.0,-999,-99.99,,,-99.99,,2013-05-09 10:12:00,
2013-05-09 05:23:00,69.0,-99.9,30.05,North,-999,-999.0,-999.0,-999,-99.99,,,-99.99,,2013-05-09 10:23:00,
2013-05-09 05:33:00,68.0,-99.9,30.05,South,176,1.0,1.0,-999,-99.99,,,-99.99,,2013-05-09 10:33:00,
2013-05-09 05:42:00,68.0,-99.9,30.06,ESE,117,1.0,2.0,-999,-99.99,,,-99.99,,2013-05-09 10:42:00,
2013-05-09 05:53:00,67.0,-99.9,30.06,North,-999,-999.0,-999.0,-999,-99.99,,,-99.99,,2013-05-09 10:53:00,
2013-05-09 06:02:00,67.0,-99.9,30.05,SE,128,1.0,2.0,-999,-99.99,,,-99.99,,2013-05-09 11:02:00,
2013-05-09 06:12:00,67.0,-99.9,30.06,SSE,160,2.0,2.0,-999,-99.99,,,-99.99,,2013-05-09 11:12:00,
2013-05-09 06:22:00,67.0,-99.9,30.07,North,-999,-999.0,-999.0,-999,-99.99,,,-99.99,,2013-05-09 11:22:00,
2013-05-09 06:32:00,67.0,-99.9,30.07,SSE,164,1.0,1.0,-999,-99.99,,,-99.99,,2013-05-09 11:32:00,
2013-05-09 06:42:00,67.0,-99.9,30.08,South,180,1.0,1.0,-999,-99.99,,,-99.99,,2013-05-09 11:42:00,
2013-05-09 06:52:00,68.0,-99.9,30.09,North,-999,-999.0,-999.0,-999,-99.99,,,-99.99,,2013-05-09 11:52:00,
2013-05-09 07:02:00,68.0,-99.9,30.09,ESE,119,1.0,2.0,-999,-99.99,,,-99.99,,2013-05-09 12:02:00,
2013-05-09 07:12:00,68.0,-99.9,30.08,SE,129,2.0,3.0,-999,-99.99,,,-99.99,,2013-05-09 12:12:00,
2013-05-09 07:22:00,69.0,-99.9,30.09,South,173,3.0,3.0,-999,-99.99,,,-99.99,,2013-05-09 12:22:00,
2013-05-09 07:32:00,69.0,-99.9,30.09,South,174,3.0,3.0,-999,-99.99,,,-99.99,,2013-05-09 12:32:00,
2013-05-09 07:43:00,68.0,-99.9,30.10,SSE,157,3.0,4.0,-999,-99.99,,,-99.99,,2013-05-09 12:43:00,
2013-05-09 07:52:00,69.0,-99.9,30.10,South,175,4.0,4.0,-999,-99.99,,,-99.99,,2013-05-09 12:52:00,
2013-05-09 08:02:00,69.0,-99.9,30.10,SSE,159,3.0,4.0,-999,-99.99,,,-99.99,,2013-05-09 13:02:00,
2013-05-09 08:12:00,69.0,-99.9,30.10,SSE,165,4.0,5.0,-999,-99.99,,,-99.99,,2013-05-09 13:12:00,
2013-05-09 08:22:00,70.0,-99.9,30.11,North,-999,-999.0,-999.0,-999,-99.99,,,-99.99,,2013-05-09 13:22:00,
2013-05-09 08:32:00,70.0,-99.9,30.11,South,177,5.0,6.0,-999,-99.99,,,-99.99,,2013-05-09 13:32:00,
2013-05-09 08:42:00,70.0,-99.9,30.12,South,178,6.0,8.0,-999,-99.99,,,-99.99,,2013-05-09 13:42:00,
2013-05-09 08:52:00,71.0,-99.9,30.12,South,184,5.0,6.0,-999,-99.99,,,-99.99,,2013-05-09 13:52:00,
2013-05-09 09:02:00,71.0,-99.9,30.13,South,176,6.0,7.0,-999,-99.99,,,-99.99,,2013-05-09 14:02:00,
2013-05-09 09:11:00,72.0,-99.9,30.13,South,180,5.0,7.0,-999,-99.99,,,-99.99,,2013-05-09 14:11:00,
2013-05-09 09:22:00,71.0,-99.9,30.13,North,-999,-999.0,-999.0,-999,-99.99,,,-99.99,,2013-05-09 14:22:00,
2013-05-09 09:32:00,71.0,-99.9,30.13,SSE,161,6.0,8.0,-999,-99.99,,,-99.99,,2013-05-09 14:32:00,
2013-05-09 09:42:00,72.0,-99.9,30.12,SSE,158,8.0,9.0,-999,-99.99,,,-99.99,,2013-05-09 14:42:00,
2013-05-09 09:52:00,72.0,-99.9,30.12,North,-999,-999.0,-999.0,-999,-99.99,,,-99.99,,2013-05-09 14:52:00,
2013-05-09 10:02:00,72.0,-99.9,30.12,SSE,162,6.0,8.0,-999,-99.99,,,-99.99,,2013-05-09 15:02:00,
2013-05-09 10:11:00,72.0,-99.9,30.12,SSE,157,7.0,8.0,-999,-99.99,,,-99.99,,2013-05-09 15:11:00,
2013-05-09 10:22:00,72.0,-99.9,30.13,SSE,159,6.0,7.0,-999,-99.99,,,-99.99,,2013-05-09 15:22:00,
2013-05-09 10:33:00,72.0,-99.9,30.13,South,171,6.0,7.0,-999,-99.99,,,-99.99,,2013-05-09 15:33:00,
2013-05-09 10:43:00,72.0,-99.9,30.14,SSE,168,6.0,6.0,-999,-99.99,,,-99.99,,2013-05-09 15:43:00,
2013-05-09 10:53:00,72.0,-99.9,30.14,North,-999,-999.0,-999.0,-999,-99.99,,,-99.99,,2013-05-09 15:53:00,
2013-05-09 11:03:00,72.0,-99.9,30.14,SSE,165,7.0,9.0,-999,-99.99,,,-99.99,,2013-05-09 16:03:00,
2013-05-09 11:12:00,72.0,-99.9,30.14,South,169,7.0,8.0,-999,-99.99,,,-99.99,,2013-05-09 16:12:00,
2013-05-09 11:23:00,72.0,-99.9,30.14,SSE,166,7.0,9.0,-999,-99.99,,,-99.99,,2013-05-09 16:23:00,
2013-05-09 11:33:00,72.0,-99.9,30.14,SSE,164,8.0,9.0,-999,-99.99,,,-99.99,,2013-05-09 16:33:00,
2013-05-09 11:42:00,72.0,-99.9,30.15,South,177,8.0,9.0,-999,-99.99,,,-99.99,,2013-05-09 16:42:00,
2013-05-09 11:53:00,72.0,-99.9,30.15,South,173,9.0,10.0,-999,-99.99,,,-99.99,,2013-05-09 16:53:00,
2013-05-09 12:02:00,72.0,-99.9,30.15,South,172,9.0,10.0,-999,-99.99,,,-99.99,,2013-05-09 17:02:00,
2013-05-09 12:12:00,72.0,-99.9,30.15,South,175,8.0,10.0,-999,-99.99,,,-99.99,,2013-05-09 17:12:00,
2013-05-09 12:22:00,72.0,-99.9,30.15,North,-999,-999.0,-999.0,-999,-99.99,,,-99.99,,2013-05-09 17:22:00,
2013-05-09 12:32:00,72.0,-99.9,30.15,South,176,9.0,10.0,-999,-99.99,,,-99.99,,2013-05-09 17:32:00,
2013-05-09 12:42:00,72.0,-99.9,30.15,SSE,164,8.0,10.0,-999,-99.99,,,-99.99,,2013-05-09 17:42:00,
2013-05-09 12:55:00,72.0,-99.9,30.14,South,174,9.0,11.0,-999,-99.99,,,-99.99,,2013-05-09 17:55:00,
2013-05-09 13:02:00,72.0,-99.9,30.14,SSE,168,10.0,12.0,-999,-99.99,,,-99.99,,2013-05-09 18:02:00,
2013-05-09 13:12:00,72.0,-99.9,30.14,South,171,9.0,10.0,-999,-99.99,,,-99.99,,2013-05-09 18:12:00,
2013-05-09 13:22:00,72.0,-99.9,30.13,South,172,9.0,11.0,-999,-99.99,,,-99.99,,2013-05-09 18:22:00,
2013-05-09 13:32:00,72.0,-99.9,30.13,South,171,9.0,11.0,-999,-99.99,,,-99.99,,2013-05-09 18:32:00,
2013-05-09 13:42:00,73.0,-99.9,30.13,SSE,159,10.0,12.0,-999,-99.99,,,-99.99,,2013-05-09 18:42:00,
2013-05-09 13:52:00,73.0,-99.9,30.12,North,-999,-999.0,-999.0,-999,-99.99,,,-99.99,,2013-05-09 18:52:00,
2013-05-09 14:01:00,73.0,-99.9,30.12,SSE,164,11.0,13.0,-999,-99.99,,,-99.99,,2013-05-09 19:01:00,
2013-05-09 14:12:00,73.0,-99.9,30.12,SSE,166,10.0,13.0,-999,-99.99,,,-99.99,,2013-05-09 19:12:00,
2013-05-09 14:21:00,73.0,-99.9,30.12,South,173,10.0,12.0,-999,-99.99,,,-99.99,,2013-05-09 19:21:00,
2013-05-09 14:32:00,73.0,-99.9,30.12,SSE,168,10.0,13.0,-999,-99.99,,,-99.99,,2013-05-09 19:32:00,
2013-05-09 14:42:00,73.0,-99.9,30.12,SSE,162,10.0,13.0,-999,-99.99,,,-99.99,,2013-05-09 19:42:00,
2013-05-09 14:52:00,73.0,-99.9,30.11,South,170,9.0,12.0,-999,-99.99,,,-99.99,,2013-05-09 19:52:00,
2013-05-09 15:02:00,73.0,-99.9,30.11,SSE,159,11.0,13.0,-999,-99.99,,,-99.99,,2013-05-09 20:02:00,
2013-05-09 15:11:00,73.0,-99.9,30.11,SSE,166,10.0,13.0,-999,-99.99,,,-99.99,,2013-05-09 20:11:00,
2013-05-09 15:22:00,73.0,-99.9,30.11,North,-999,-999.0,-999.0,-999,-99.99,,,-99.99,,2013-05-09 20:22:00,
2013-05-09 15:32:00,73.0,-99.9,30.10,SSE,166,10.0,13.0,-999,-99.99,,,-99.99,,2013-05-09 20:32:00,
2013-05-09 15:42:00,73.0,-99.9,30.10,South,171,10.0,12.0,-999,-99.99,,,-99.99,,2013-05-09 20:42:00,
2013-05-09 15:52:00,73.0,-99.9,30.10,South,171,10.0,12.0,-999,-99.99,,,-99.99,,2013-05-09 20:52:00,
2013-05-09 16:02:00,73.0,-99.9,30.10,South,174,9.0,12.0,-999,-99.99,,,-99.99,,2013-05-09 21:02:00,
2013-05-09 16:12:00,73.0,-99.9,30.10,South,172,9.0,11.0,-999,-99.99,,,-99.99,,2013-05-09 21:12:00,
2013-05-09 16:22:00,73.0,-99.9,30.09,SSE,166,10.0,13.0,-999,-99.99,,,-99.99,,2013-05-09 21:22:00,
2013-05-09 16:33:00,73.0,-99.9,30.09,SSE,164,10.0,13.0,-999,-99.99,,,-99.99,,2013-05-09 21:33:00,
2013-05-09 16:43:00,73.0,-99.9,30.09,SSE,165,11.0,14.0,-999,-99.99,,,-99.99,,2013-05-09 21:43:00,
2013-05-09 16:53:00,73.0,-99.9,30.09,North,-999,-999.0,-999.0,-999,-99.99,,,-99.99,,2013-05-09 21:53:00,
2013-05-09 17:03:00,73.0,-99.9,30.09,SSE,162,9.0,10.0,-999,-99.99,,,-99.99,,2013-05-09 22:03:00,
2013-05-09 17:13:00,73.0,-99.9,30.09,SSE,158,11.0,14.0,-999,-99.99,,,-99.99,,2013-05-09 22:13:00,
2013-05-09 17:23:00,73.0,-99.9,30.08,North,-999,-999.0,-999.0,-999,-99.99,,,-99.99,,2013-05-09 22:23:00,
2013-05-09 17:33:00,73.0,-99.9,30.08,SSE,163,11.0,13.0,-999,-99.99,,,-99.99,,2013-05-09 22:33:00,
2013-05-09 17:42:00,73.0,-99.9,30.08,SSE,164,10.0,11.0,-999,-99.99,,,-99.99,,2013-05-09 22:42:00,
2013-05-09 17:52:00,73.0,-99.9,30.08,SSE,163,10.0,11.0,-999,-99.99,,,-99.99,,2013-05-09 22:52:00,
2013-05-09 18:03:00,73.0,-99.9,30.08,SSE,158,10.0,12.0,-999,-99.99,,,-99.99,,2013-05-09 23:03:00,
2013-05-09 18:12:00,73.0,-99.9,30.08,SSE,164,10.0,12.0,-999,-99.99,,,-99.99,,2013-05-09 23:12:00,
2013-05-09 18:22:00,73.0,-99.9,30.08,SSE,161,10.0,13.0,-999,-99.99,,,-99.99,,2013-05-09 23:22:00,
2013-05-09 18:32:00,73.0,-99.9,30.07,SSE,156,11.0,12.0,-999,-99.99,,,-99.99,,2013-05-09 23:32:00,
2013-05-09 18:43:00,73.0,-99.9,30.07,SSE,151,11.0,12.0,-999,-99.99,,,-99.99,,2013-05-09 23:43:00,
2013-05-09 18:52:00,73.0,-99.9,30.07,North,-999,-999.0,-999.0,-999,-99.99,,,-99.99,,2013-05-09 23:52:00,
2013-05-09 19:02:00,73.0,-99.9,30.06,SE,143,10.0,12.0,-999,-99.99,,,-99.99,,2013-05-10 00:02:00,
2013-05-09 19:11:00,73.0,-99.9,30.07,SSE,153,10.0,13.0,-999,-99.99,,,-99.99,,2013-05-10 00:11:00,
2013-05-09 19:22:00,73.0,-99.9,30.08,SSE,151,9.0,11.0,-999,-99.99,,,-99.99,,2013-05-10 00:22:00,
2013-05-09 19:32:00,72.0,-99.9,30.08,SSE,151,8.0,10.0,-999,-99.99,,,-99.99,,2013-05-10 00:32:00,
2013-05-09 19:42:00,72.0,-99.9,30.08,SSE,149,9.0,11.0,-999,-99.99,,,-99.99,,2013-05-10 00:42:00,
2013-05-09 19:52:00,72.0,-99.9,30.08,North,-999,-999.0,-999.0,-999,-99.99,,,-99.99,,2013-05-10 00:52:00,
2013-05-09 20:01:00,72.0,-99.9,30.08,SE,142,10.0,12.0,-999,-99.99,,,-99.99,,2013-05-10 01:01:00,
2013-05-09 20:11:00,72.0,-99.9,30.08,SE,137,9.0,11.0,-999,-99.99,,,-99.99,,2013-05-10 01:11:00,
2013-05-09 20:22:00,72.0,-99.9,30.07,North,-999,-999.0,-999.0,-999,-99.99,,,-99.99,,2013-05-10 01:22:00,
2013-05-09 20:32:00,72.0,-99.9,30.07,SE,134,11.0,12.0,-999,-99.99,,,-99.99,,2013-05-10 01:32:00,
2013-05-09 20:42:00,72.0,-99.9,30.08,SE,138,11.0,14.0,-999,-99.99,,,-99.99,,2013-05-10 01:42:00,
2013-05-09 20:52:00,72.0,-99.9,30.08,North,-999,-999.0,-999.0,-999,-99.99,,,-99.99,,2013-05-10 01:52:00,
2013-05-09 21:02:00,72.0,-99.9,30.08,SSE,149,12.0,15.0,-999,-99.99,,,-99.99,,2013-05-10 02:02:00,
2013-05-09 21:11:00,72.0,-99.9,30.09,SSE,148,12.0,16.0,-999,-99.99,,,-99.99,,2013-05-10 02:11:00,
2013-05-09 21:21:00,72.0,-99.9,30.08,SE,144,12.0,16.0,-999,-99.99,,,-99.99,,2013-05-10 02:21:00,
2013-05-09 21:32:00,72.0,-99.9,30.08,SE,144,12.0,15.0,-999,-99.99,,,-99.99,,2013-05-10 02:32:00,
2013-05-09 21:42:00,72.0,-99.9,30.08,SSE,148,13.0,17.0,-999,-99.99,,,-99.99,,2013-05-10 02:42:00,
2013-05-09 21:53:00,72.0,-99.9,30.07,SE,141,13.0,17.0,-999,-99.99,,,-99.99,,2013-05-10 02:53:00,
2013-05-09 22:01:00,72.0,-99.9,30.08,SE,144,12.0,17.0,-999,-99.99,,,-99.99,,2013-05-10 03:01:00,
2013-05-09 22:11:00,72.0,-99.9,30.08,SSE,152,14.0,17.0,-999,-99.99,,,-99.99,,2013-05-10 03:11:00,
2013-05-09 22:22:00,72.0,-99.9,30.08,North,-999,-999.0,-999.0,-999,-99.99,,,-99.99,,2013-05-10 03:22:00,
2013-05-09 22:33:00,72.0,-99.9,30.08,SSE,151,14.0,16.0,-999,-99.99,,,-99.99,,2013-05-10 03:33:00,
2013-05-09 22:43:00,72.0,-99.9,30.08,SSE,156,13.0,16.0,-999,-99.99,,,-99.99,,2013-05-10 03:43:00,
2013-05-09 22:53:00,72.0,-99.9,30.08,North,-999,-999.0,-999.0,-999,-99.99,,,-99.99,,2013-05-10 03:53:00,
2013-05-09 23:03:00,72.0,-99.9,30.09,SSE,154,14.0,17.0,-999,-99.99,,,-99.99,,2013-05-10 04:03:00,
2013-05-09 23:12:00,72.0,-99.9,30.09,SSE,160,14.0,16.0,-999,-99.99,,,-99.99,,2013-05-10 04:12:00,
2013-05-09 23:23:00,72.0,-99.9,30.09,SSE,156,13.0,16.0,-999,-99.99,,,-99.99,,2013-05-10 04:23:00,
2013-05-09 23:33:00,72.0,-99.9,30.09,SSE,150,14.0,17.0,-999,-99.99,,,-99.99,,2013-05-10 04:33:00,
2013-05-09 23:43:00,72.0,-99.9,30.08,SSE,154,15.0,18.0,-999,-99.99,,,-99.99,,2013-05-10 04:43:00,
2013-05-09 23:53:00,72.0,-99.9,30.07,North,-999,-999.0,-999.0,-999,-99.99,,,-99.99,,2013-05-10 04:53:00,